sensor_id;sensor_type;location;lat;lon;timestamp;temperature;humidity
17827;DHT22;9038;48.208;16.308;2023-02-01T00:01:58;5.00;75.00
17827;DHT22;9038;48.208;16.308;2023-02-01T00:04:00;5.10;75.00
17827;DHT22;9038;48.208;16.308;2023-02-01T00:06:02;5.10;75.00
17827;DHT22;9038;48.208;16.308;2023-02-01T00:08:05;5.10;75.00
17827;DHT22;9038;48.208;16.308;2023-02-01T00:10:08;5.10;74.80
17827;DHT22;9038;48.208;16.308;2023-02-01T00:12:11;5.10;74.80
17827;DHT22;9038;48.208;16.308;2023-02-01T00:14:13;5.10;74.70
17827;DHT22;9038;48.208;16.308;2023-02-01T00:16:16;5.10;74.60
17827;DHT22;9038;48.208;16.308;2023-02-01T00:18:20;5.10;74.50
17827;DHT22;9038;48.208;16.308;2023-02-01T00:20:22;5.10;74.40
17827;DHT22;9038;48.208;16.308;2023-02-01T00:22:25;5.10;74.40
17827;DHT22;9038;48.208;16.308;2023-02-01T00:24:27;5.10;74.30
17827;DHT22;9038;48.208;16.308;2023-02-01T00:26:32;5.20;74.20
17827;DHT22;9038;48.208;16.308;2023-02-01T00:28:35;5.20;74.10
17827;DHT22;9038;48.208;16.308;2023-02-01T00:30:37;5.20;74.10
17827;DHT22;9038;48.208;16.308;2023-02-01T00:32:39;5.20;74.10
17827;DHT22;9038;48.208;16.308;2023-02-01T00:34:42;5.20;74.00
17827;DHT22;9038;48.208;16.308;2023-02-01T00:36:45;5.20;73.80
17827;DHT22;9038;48.208;16.308;2023-02-01T00:38:47;5.20;73.90
17827;DHT22;9038;48.208;16.308;2023-02-01T00:40:49;5.20;73.80
17827;DHT22;9038;48.208;16.308;2023-02-01T00:42:51;5.20;73.50
17827;DHT22;9038;48.208;16.308;2023-02-01T00:44:53;5.30;73.40
17827;DHT22;9038;48.208;16.308;2023-02-01T00:46:55;5.30;73.30
17827;DHT22;9038;48.208;16.308;2023-02-01T00:48:57;5.30;73.20
17827;DHT22;9038;48.208;16.308;2023-02-01T00:51:02;5.30;73.30
17827;DHT22;9038;48.208;16.308;2023-02-01T00:53:04;5.30;73.20
17827;DHT22;9038;48.208;16.308;2023-02-01T00:55:08;5.30;73.30
17827;DHT22;9038;48.208;16.308;2023-02-01T00:57:10;5.30;73.50
17827;DHT22;9038;48.208;16.308;2023-02-01T00:59:12;5.30;73.60
17827;DHT22;9038;48.208;16.308;2023-02-01T01:01:17;5.20;73.50
17827;DHT22;9038;48.208;16.308;2023-02-01T01:03:19;5.20;73.60
17827;DHT22;9038;48.208;16.308;2023-02-01T01:05:21;5.20;73.70
17827;DHT22;9038;48.208;16.308;2023-02-01T01:07:24;5.20;73.80
17827;DHT22;9038;48.208;16.308;2023-02-01T01:09:29;5.20;73.80
17827;DHT22;9038;48.208;16.308;2023-02-01T01:11:34;5.20;73.80
17827;DHT22;9038;48.208;16.308;2023-02-01T01:13:36;5.20;73.60
17827;DHT22;9038;48.208;16.308;2023-02-01T01:15:39;5.20;73.60
17827;DHT22;9038;48.208;16.308;2023-02-01T01:17:41;5.20;73.70
17827;DHT22;9038;48.208;16.308;2023-02-01T01:19:46;5.30;73.60
17827;DHT22;9038;48.208;16.308;2023-02-01T01:21:49;5.20;73.50
17827;DHT22;9038;48.208;16.308;2023-02-01T01:23:53;5.30;73.30
17827;DHT22;9038;48.208;16.308;2023-02-01T01:25:55;5.30;73.30
17827;DHT22;9038;48.208;16.308;2023-02-01T01:27:58;5.40;73.30
17827;DHT22;9038;48.208;16.308;2023-02-01T01:30:01;5.30;73.20
17827;DHT22;9038;48.208;16.308;2023-02-01T01:32:05;5.30;73.20
17827;DHT22;9038;48.208;16.308;2023-02-01T01:34:09;5.40;73.30
17827;DHT22;9038;48.208;16.308;2023-02-01T01:36:15;5.30;73.20
17827;DHT22;9038;48.208;16.308;2023-02-01T01:38:18;5.30;73.20
17827;DHT22;9038;48.208;16.308;2023-02-01T01:40:24;5.00;73.00
17827;DHT22;9038;48.208;16.308;2023-02-01T01:42:27;5.30;73.20
17827;DHT22;9038;48.208;16.308;2023-02-01T01:44:57;5.30;73.30
17827;DHT22;9038;48.208;16.308;2023-02-01T01:47:00;5.20;73.40
17827;DHT22;9038;48.208;16.308;2023-02-01T01:49:08;5.20;73.40
17827;DHT22;9038;48.208;16.308;2023-02-01T01:51:12;5.20;73.60
17827;DHT22;9038;48.208;16.308;2023-02-01T01:53:22;5.20;73.90
17827;DHT22;9038;48.208;16.308;2023-02-01T01:55:31;5.20;73.80
17827;DHT22;9038;48.208;16.308;2023-02-01T01:57:35;5.20;74.00
17827;DHT22;9038;48.208;16.308;2023-02-01T01:59:40;5.20;74.10
17827;DHT22;9038;48.208;16.308;2023-02-01T02:01:43;5.20;74.00
17827;DHT22;9038;48.208;16.308;2023-02-01T02:03:46;5.20;74.10
17827;DHT22;9038;48.208;16.308;2023-02-01T02:05:53;5.20;74.20
17827;DHT22;9038;48.208;16.308;2023-02-01T02:08:01;5.20;74.20
17827;DHT22;9038;48.208;16.308;2023-02-01T02:10:05;5.20;74.20
17827;DHT22;9038;48.208;16.308;2023-02-01T02:12:09;5.20;74.30
17827;DHT22;9038;48.208;16.308;2023-02-01T02:14:13;5.30;74.40
17827;DHT22;9038;48.208;16.308;2023-02-01T02:16:40;5.30;74.50
17827;DHT22;9038;48.208;16.308;2023-02-01T02:18:53;5.30;74.50
17827;DHT22;9038;48.208;16.308;2023-02-01T02:21:14;5.30;74.40
17827;DHT22;9038;48.208;16.308;2023-02-01T02:26:18;5.40;74.40
17827;DHT22;9038;48.208;16.308;2023-02-01T02:28:46;5.40;74.40
17827;DHT22;9038;48.208;16.308;2023-02-01T02:31:06;5.40;74.30
17827;DHT22;9038;48.208;16.308;2023-02-01T02:33:40;5.40;74.30
17827;DHT22;9038;48.208;16.308;2023-02-01T02:35:50;5.40;74.50
17827;DHT22;9038;48.208;16.308;2023-02-01T02:38:00;5.40;74.50
17827;DHT22;9038;48.208;16.308;2023-02-01T02:40:07;5.40;74.50
17827;DHT22;9038;48.208;16.308;2023-02-01T02:42:17;5.30;74.50
17827;DHT22;9038;48.208;16.308;2023-02-01T02:44:47;5.30;74.60
17827;DHT22;9038;48.208;16.308;2023-02-01T02:47:13;5.30;74.60
17827;DHT22;9038;48.208;16.308;2023-02-01T02:49:34;5.30;74.90
17827;DHT22;9038;48.208;16.308;2023-02-01T02:51:41;5.40;75.00
17827;DHT22;9038;48.208;16.308;2023-02-01T02:54:05;5.40;75.00
17827;DHT22;9038;48.208;16.308;2023-02-01T02:56:27;5.40;75.10
17827;DHT22;9038;48.208;16.308;2023-02-01T02:58:46;5.40;74.80
17827;DHT22;9038;48.208;16.308;2023-02-01T03:01:07;5.40;75.00
17827;DHT22;9038;48.208;16.308;2023-02-01T03:03:26;5.40;75.00
17827;DHT22;9038;48.208;16.308;2023-02-01T03:05:49;5.40;76.00
17827;DHT22;9038;48.208;16.308;2023-02-01T03:08:04;5.40;75.30
17827;DHT22;9038;48.208;16.308;2023-02-01T03:10:10;5.40;75.50
17827;DHT22;9038;48.208;16.308;2023-02-01T03:12:15;5.30;75.60
17827;DHT22;9038;48.208;16.308;2023-02-01T03:14:41;5.30;75.80
17827;DHT22;9038;48.208;16.308;2023-02-01T03:16:50;5.30;75.70
17827;DHT22;9038;48.208;16.308;2023-02-01T03:18:56;5.30;75.60
17827;DHT22;9038;48.208;16.308;2023-02-01T03:21:06;5.30;75.60
17827;DHT22;9038;48.208;16.308;2023-02-01T03:23:10;5.30;75.90
17827;DHT22;9038;48.208;16.308;2023-02-01T03:25:16;5.30;75.70
17827;DHT22;9038;48.208;16.308;2023-02-01T03:27:22;5.20;75.60
17827;DHT22;9038;48.208;16.308;2023-02-01T03:29:31;5.20;75.60
17827;DHT22;9038;48.208;16.308;2023-02-01T03:31:35;5.20;75.60
17827;DHT22;9038;48.208;16.308;2023-02-01T03:33:37;5.20;75.60
17827;DHT22;9038;48.208;16.308;2023-02-01T03:35:43;5.20;75.40
17827;DHT22;9038;48.208;16.308;2023-02-01T03:37:48;5.30;75.40
17827;DHT22;9038;48.208;16.308;2023-02-01T03:39:56;5.30;75.20
17827;DHT22;9038;48.208;16.308;2023-02-01T03:42:01;5.30;75.00
17827;DHT22;9038;48.208;16.308;2023-02-01T03:44:11;5.30;74.80
17827;DHT22;9038;48.208;16.308;2023-02-01T03:46:20;5.30;74.70
17827;DHT22;9038;48.208;16.308;2023-02-01T03:48:25;5.40;75.70
17827;DHT22;9038;48.208;16.308;2023-02-01T03:50:29;5.40;74.70
17827;DHT22;9038;48.208;16.308;2023-02-01T03:52:37;5.40;74.60
17827;DHT22;9038;48.208;16.308;2023-02-01T03:54:43;5.40;74.70
17827;DHT22;9038;48.208;16.308;2023-02-01T03:56:48;5.40;74.60
17827;DHT22;9038;48.208;16.308;2023-02-01T03:58:50;5.50;74.60
17827;DHT22;9038;48.208;16.308;2023-02-01T04:01:00;5.50;74.60
17827;DHT22;9038;48.208;16.308;2023-02-01T04:03:04;5.50;74.40
17827;DHT22;9038;48.208;16.308;2023-02-01T04:05:08;5.50;74.20
17827;DHT22;9038;48.208;16.308;2023-02-01T04:07:16;5.60;74.20
17827;DHT22;9038;48.208;16.308;2023-02-01T04:09:19;5.60;73.80
17827;DHT22;9038;48.208;16.308;2023-02-01T04:11:22;5.60;73.70
17827;DHT22;9038;48.208;16.308;2023-02-01T04:13:24;5.70;73.60
17827;DHT22;9038;48.208;16.308;2023-02-01T04:15:26;5.70;73.60
17827;DHT22;9038;48.208;16.308;2023-02-01T04:17:28;5.70;73.60
17827;DHT22;9038;48.208;16.308;2023-02-01T04:19:30;5.70;73.60
17827;DHT22;9038;48.208;16.308;2023-02-01T04:21:32;5.70;73.30
17827;DHT22;9038;48.208;16.308;2023-02-01T04:23:34;5.80;73.30
17827;DHT22;9038;48.208;16.308;2023-02-01T04:25:37;5.80;73.10
17827;DHT22;9038;48.208;16.308;2023-02-01T04:27:40;5.90;73.10
17827;DHT22;9038;48.208;16.308;2023-02-01T04:29:42;5.90;73.00
17827;DHT22;9038;48.208;16.308;2023-02-01T04:31:46;5.90;73.10
17827;DHT22;9038;48.208;16.308;2023-02-01T04:33:48;5.90;73.10
17827;DHT22;9038;48.208;16.308;2023-02-01T04:35:50;6.00;73.10
17827;DHT22;9038;48.208;16.308;2023-02-01T04:37:52;6.00;73.20
17827;DHT22;9038;48.208;16.308;2023-02-01T04:39:54;6.00;73.20
17827;DHT22;9038;48.208;16.308;2023-02-01T04:41:56;6.00;73.40
17827;DHT22;9038;48.208;16.308;2023-02-01T04:44:00;6.00;73.50
17827;DHT22;9038;48.208;16.308;2023-02-01T04:46:02;6.00;73.40
17827;DHT22;9038;48.208;16.308;2023-02-01T04:48:05;6.00;73.60
17827;DHT22;9038;48.208;16.308;2023-02-01T04:50:08;6.00;73.70
17827;DHT22;9038;48.208;16.308;2023-02-01T04:52:11;6.00;73.90
17827;DHT22;9038;48.208;16.308;2023-02-01T04:54:15;6.00;73.90
17827;DHT22;9038;48.208;16.308;2023-02-01T04:56:17;6.00;74.10
17827;DHT22;9038;48.208;16.308;2023-02-01T04:58:19;5.90;74.00
17827;DHT22;9038;48.208;16.308;2023-02-01T05:00:23;5.90;74.30
17827;DHT22;9038;48.208;16.308;2023-02-01T05:02:25;5.90;75.00
17827;DHT22;9038;48.208;16.308;2023-02-01T05:04:27;5.90;74.20
17827;DHT22;9038;48.208;16.308;2023-02-01T05:06:30;5.90;74.20
17827;DHT22;9038;48.208;16.308;2023-02-01T05:08:32;6.00;74.20
17827;DHT22;9038;48.208;16.308;2023-02-01T05:10:34;6.00;74.40
17827;DHT22;9038;48.208;16.308;2023-02-01T05:12:36;6.00;74.50
17827;DHT22;9038;48.208;16.308;2023-02-01T05:14:55;6.00;74.50
17827;DHT22;9038;48.208;16.308;2023-02-01T05:16:59;6.00;74.70
17827;DHT22;9038;48.208;16.308;2023-02-01T05:19:01;6.00;74.70
17827;DHT22;9038;48.208;16.308;2023-02-01T05:21:04;6.00;74.90
17827;DHT22;9038;48.208;16.308;2023-02-01T05:23:06;6.10;75.00
17827;DHT22;9038;48.208;16.308;2023-02-01T05:25:09;6.10;76.10
17827;DHT22;9038;48.208;16.308;2023-02-01T05:27:11;6.10;75.30
17827;DHT22;9038;48.208;16.308;2023-02-01T05:29:13;6.10;75.50
17827;DHT22;9038;48.208;16.308;2023-02-01T05:31:17;6.10;75.50
17827;DHT22;9038;48.208;16.308;2023-02-01T05:33:22;6.20;76.20
17827;DHT22;9038;48.208;16.308;2023-02-01T05:35:24;6.10;76.40
17827;DHT22;9038;48.208;16.308;2023-02-01T05:37:26;6.20;77.30
17827;DHT22;9038;48.208;16.308;2023-02-01T05:39:28;6.10;76.90
17827;DHT22;9038;48.208;16.308;2023-02-01T05:41:31;6.10;77.10
17827;DHT22;9038;48.208;16.308;2023-02-01T05:43:33;6.10;77.40
17827;DHT22;9038;48.208;16.308;2023-02-01T05:45:35;6.10;77.50
17827;DHT22;9038;48.208;16.308;2023-02-01T05:47:37;6.00;77.10
17827;DHT22;9038;48.208;16.308;2023-02-01T05:49:41;6.00;77.10
17827;DHT22;9038;48.208;16.308;2023-02-01T05:51:43;6.00;77.00
17827;DHT22;9038;48.208;16.308;2023-02-01T05:53:45;6.00;76.70
17827;DHT22;9038;48.208;16.308;2023-02-01T05:55:47;6.00;76.70
17827;DHT22;9038;48.208;16.308;2023-02-01T05:57:49;6.00;76.60
17827;DHT22;9038;48.208;16.308;2023-02-01T05:59:51;6.10;76.60
17827;DHT22;9038;48.208;16.308;2023-02-01T06:01:53;6.10;76.40
17827;DHT22;9038;48.208;16.308;2023-02-01T06:03:55;6.10;76.00
17827;DHT22;9038;48.208;16.308;2023-02-01T06:05:59;6.10;75.60
17827;DHT22;9038;48.208;16.308;2023-02-01T06:08:03;6.10;76.70
17827;DHT22;9038;48.208;16.308;2023-02-01T06:10:09;6.00;75.90
17827;DHT22;9038;48.208;16.308;2023-02-01T06:12:12;6.00;75.80
17827;DHT22;9038;48.208;16.308;2023-02-01T06:14:15;6.10;75.80
17827;DHT22;9038;48.208;16.308;2023-02-01T06:16:17;6.10;75.50
17827;DHT22;9038;48.208;16.308;2023-02-01T06:18:19;6.10;75.20
17827;DHT22;9038;48.208;16.308;2023-02-01T06:20:22;6.10;75.10
17827;DHT22;9038;48.208;16.308;2023-02-01T06:22:26;6.10;74.90
17827;DHT22;9038;48.208;16.308;2023-02-01T06:24:28;6.20;74.90
17827;DHT22;9038;48.208;16.308;2023-02-01T06:26:30;6.20;74.60
17827;DHT22;9038;48.208;16.308;2023-02-01T06:28:32;6.20;74.30
17827;DHT22;9038;48.208;16.308;2023-02-01T06:30:48;6.20;74.30
17827;DHT22;9038;48.208;16.308;2023-02-01T06:32:51;6.20;74.10
17827;DHT22;9038;48.208;16.308;2023-02-01T06:34:54;6.30;74.20
17827;DHT22;9038;48.208;16.308;2023-02-01T06:37:00;6.30;74.20
17827;DHT22;9038;48.208;16.308;2023-02-01T06:39:06;6.30;73.90
17827;DHT22;9038;48.208;16.308;2023-02-01T06:41:09;6.40;73.80
17827;DHT22;9038;48.208;16.308;2023-02-01T06:43:11;6.40;73.60
17827;DHT22;9038;48.208;16.308;2023-02-01T06:45:14;6.40;73.30
17827;DHT22;9038;48.208;16.308;2023-02-01T06:47:18;6.40;73.30
17827;DHT22;9038;48.208;16.308;2023-02-01T06:49:20;6.50;73.20
17827;DHT22;9038;48.208;16.308;2023-02-01T06:51:24;6.50;72.90
17827;DHT22;9038;48.208;16.308;2023-02-01T06:53:26;6.50;72.80
17827;DHT22;9038;48.208;16.308;2023-02-01T06:55:30;6.50;73.10
17827;DHT22;9038;48.208;16.308;2023-02-01T06:57:35;6.60;73.60
17827;DHT22;9038;48.208;16.308;2023-02-01T06:59:37;6.50;73.40
17827;DHT22;9038;48.208;16.308;2023-02-01T07:01:39;6.60;73.80
17827;DHT22;9038;48.208;16.308;2023-02-01T07:03:47;6.60;73.90
17827;DHT22;9038;48.208;16.308;2023-02-01T07:05:56;6.60;74.20
17827;DHT22;9038;48.208;16.308;2023-02-01T07:08:00;6.60;74.20
17827;DHT22;9038;48.208;16.308;2023-02-01T07:10:02;6.60;74.10
17827;DHT22;9038;48.208;16.308;2023-02-01T07:12:07;6.60;74.10
17827;DHT22;9038;48.208;16.308;2023-02-01T07:14:10;6.60;73.80
17827;DHT22;9038;48.208;16.308;2023-02-01T07:16:14;6.60;73.40
17827;DHT22;9038;48.208;16.308;2023-02-01T07:18:16;6.60;73.30
17827;DHT22;9038;48.208;16.308;2023-02-01T07:20:18;6.70;73.20
17827;DHT22;9038;48.208;16.308;2023-02-01T07:22:20;6.70;73.30
17827;DHT22;9038;48.208;16.308;2023-02-01T07:24:22;6.80;73.00
17827;DHT22;9038;48.208;16.308;2023-02-01T07:26:24;6.80;72.30
17827;DHT22;9038;48.208;16.308;2023-02-01T07:28:28;6.80;72.30
17827;DHT22;9038;48.208;16.308;2023-02-01T07:30:30;6.80;72.30
17827;DHT22;9038;48.208;16.308;2023-02-01T07:32:32;6.80;72.40
17827;DHT22;9038;48.208;16.308;2023-02-01T07:34:34;6.90;72.20
17827;DHT22;9038;48.208;16.308;2023-02-01T07:36:36;6.80;72.00
17827;DHT22;9038;48.208;16.308;2023-02-01T07:38:39;6.80;71.60
17827;DHT22;9038;48.208;16.308;2023-02-01T19:17:31;5.20;83.00
17827;DHT22;9038;48.208;16.308;2023-02-01T19:19:34;5.10;83.40
17827;DHT22;9038;48.208;16.308;2023-02-01T19:21:38;5.20;83.20
17827;DHT22;9038;48.208;16.308;2023-02-01T19:23:41;5.30;83.40
17827;DHT22;9038;48.208;16.308;2023-02-01T19:25:45;5.40;82.80
17827;DHT22;9038;48.208;16.308;2023-02-01T19:27:49;5.50;82.40
17827;DHT22;9038;48.208;16.308;2023-02-01T19:29:52;5.60;82.00
17827;DHT22;9038;48.208;16.308;2023-02-01T19:31:56;5.60;81.30
17827;DHT22;9038;48.208;16.308;2023-02-01T19:34:00;5.60;81.30
17827;DHT22;9038;48.208;16.308;2023-02-01T19:36:05;5.70;81.40
17827;DHT22;9038;48.208;16.308;2023-02-01T19:38:10;5.80;80.80
17827;DHT22;9038;48.208;16.308;2023-02-01T19:40:16;5.80;80.20
17827;DHT22;9038;48.208;16.308;2023-02-01T19:42:19;5.80;82.60
17827;DHT22;9038;48.208;16.308;2023-02-01T19:44:22;6.00;83.90
17827;DHT22;9038;48.208;16.308;2023-02-01T19:46:24;6.30;83.60
17827;DHT22;9038;48.208;16.308;2023-02-01T19:48:28;6.40;80.30
17827;DHT22;9038;48.208;16.308;2023-02-01T19:50:39;6.60;81.30
17827;DHT22;9038;48.208;16.308;2023-02-01T19:52:41;6.70;80.40
17827;DHT22;9038;48.208;16.308;2023-02-01T19:54:46;6.80;78.20
17827;DHT22;9038;48.208;16.308;2023-02-01T19:56:49;6.80;75.00
17827;DHT22;9038;48.208;16.308;2023-02-01T19:58:55;6.80;74.50
17827;DHT22;9038;48.208;16.308;2023-02-01T20:00:58;6.70;74.60
17827;DHT22;9038;48.208;16.308;2023-02-01T20:03:01;6.60;74.10
17827;DHT22;9038;48.208;16.308;2023-02-01T20:05:05;6.50;73.90
17827;DHT22;9038;48.208;16.308;2023-02-01T20:07:13;6.50;74.20
17827;DHT22;9038;48.208;16.308;2023-02-01T20:09:17;6.50;74.40
17827;DHT22;9038;48.208;16.308;2023-02-01T20:11:22;6.40;73.90
17827;DHT22;9038;48.208;16.308;2023-02-01T20:13:26;6.40;73.80
17827;DHT22;9038;48.208;16.308;2023-02-01T20:15:29;6.40;74.80
17827;DHT22;9038;48.208;16.308;2023-02-01T20:17:32;6.40;73.80
17827;DHT22;9038;48.208;16.308;2023-02-01T20:19:35;6.40;73.80
17827;DHT22;9038;48.208;16.308;2023-02-01T20:21:38;6.40;74.20
17827;DHT22;9038;48.208;16.308;2023-02-01T20:23:47;6.40;74.10
17827;DHT22;9038;48.208;16.308;2023-02-01T20:25:50;6.40;74.30
17827;DHT22;9038;48.208;16.308;2023-02-01T20:27:54;6.40;74.30
17827;DHT22;9038;48.208;16.308;2023-02-01T20:29:59;6.40;74.30
17827;DHT22;9038;48.208;16.308;2023-02-01T20:32:02;6.40;74.30
17827;DHT22;9038;48.208;16.308;2023-02-01T20:34:06;6.30;74.50
17827;DHT22;9038;48.208;16.308;2023-02-01T20:36:09;6.30;74.60
17827;DHT22;9038;48.208;16.308;2023-02-01T20:38:12;6.30;74.80
17827;DHT22;9038;48.208;16.308;2023-02-01T20:40:17;6.30;74.70
17827;DHT22;9038;48.208;16.308;2023-02-01T20:42:20;6.20;74.10
17827;DHT22;9038;48.208;16.308;2023-02-01T20:44:23;6.30;74.20
17827;DHT22;9038;48.208;16.308;2023-02-01T20:46:27;6.40;74.40
17827;DHT22;9038;48.208;16.308;2023-02-01T20:48:29;6.40;74.30
17827;DHT22;9038;48.208;16.308;2023-02-01T20:50:33;6.40;74.30
17827;DHT22;9038;48.208;16.308;2023-02-01T20:52:37;6.40;73.90
17827;DHT22;9038;48.208;16.308;2023-02-01T20:54:40;6.40;74.00
17827;DHT22;9038;48.208;16.308;2023-02-01T20:56:45;6.40;73.90
17827;DHT22;9038;48.208;16.308;2023-02-01T20:58:48;6.40;73.80
17827;DHT22;9038;48.208;16.308;2023-02-01T21:00:52;6.40;74.00
17827;DHT22;9038;48.208;16.308;2023-02-01T21:02:55;6.40;73.40
17827;DHT22;9038;48.208;16.308;2023-02-01T21:04:58;6.40;73.30
17827;DHT22;9038;48.208;16.308;2023-02-01T21:07:01;6.50;73.40
17827;DHT22;9038;48.208;16.308;2023-02-01T21:09:04;6.40;72.30
17827;DHT22;9038;48.208;16.308;2023-02-01T21:11:09;6.50;72.60
17827;DHT22;9038;48.208;16.308;2023-02-01T21:13:13;6.50;72.40
17827;DHT22;9038;48.208;16.308;2023-02-01T21:15:15;6.50;72.30
17827;DHT22;9038;48.208;16.308;2023-02-01T21:17:19;6.50;72.00
17827;DHT22;9038;48.208;16.308;2023-02-01T21:19:22;6.50;71.40
17827;DHT22;9038;48.208;16.308;2023-02-01T21:21:26;6.50;71.20
17827;DHT22;9038;48.208;16.308;2023-02-01T21:23:28;6.60;70.60
17827;DHT22;9038;48.208;16.308;2023-02-01T21:25:30;6.60;70.50
17827;DHT22;9038;48.208;16.308;2023-02-01T21:27:33;6.60;70.30
17827;DHT22;9038;48.208;16.308;2023-02-01T21:29:37;6.70;70.30
17827;DHT22;9038;48.208;16.308;2023-02-01T21:31:40;6.70;69.70
17827;DHT22;9038;48.208;16.308;2023-02-01T21:33:43;6.70;69.60
17827;DHT22;9038;48.208;16.308;2023-02-01T21:35:49;6.70;69.30
17827;DHT22;9038;48.208;16.308;2023-02-01T21:37:52;6.70;69.40
17827;DHT22;9038;48.208;16.308;2023-02-01T21:39:54;6.70;69.20
17827;DHT22;9038;48.208;16.308;2023-02-01T21:41:57;6.60;68.90
17827;DHT22;9038;48.208;16.308;2023-02-01T21:44:14;6.70;69.10
17827;DHT22;9038;48.208;16.308;2023-02-01T21:46:17;6.70;69.10
17827;DHT22;9038;48.208;16.308;2023-02-01T21:48:19;6.70;68.80
17827;DHT22;9038;48.208;16.308;2023-02-01T21:50:23;6.70;68.80
17827;DHT22;9038;48.208;16.308;2023-02-01T21:52:25;6.70;69.00
17827;DHT22;9038;48.208;16.308;2023-02-01T21:54:27;6.70;69.10
17827;DHT22;9038;48.208;16.308;2023-02-01T21:56:30;6.70;69.50
17827;DHT22;9038;48.208;16.308;2023-02-01T21:58:32;6.70;69.70
17827;DHT22;9038;48.208;16.308;2023-02-01T22:00:34;6.60;70.10
17827;DHT22;9038;48.208;16.308;2023-02-01T22:02:38;6.60;70.10
17827;DHT22;9038;48.208;16.308;2023-02-01T22:04:40;6.60;70.30
17827;DHT22;9038;48.208;16.308;2023-02-01T22:06:43;6.50;70.50
17827;DHT22;9038;48.208;16.308;2023-02-01T22:08:46;6.50;70.50
17827;DHT22;9038;48.208;16.308;2023-02-01T22:10:48;6.40;70.50
17827;DHT22;9038;48.208;16.308;2023-02-01T22:12:50;6.50;71.20
17827;DHT22;9038;48.208;16.308;2023-02-01T22:14:51;6.50;71.30
17827;DHT22;9038;48.208;16.308;2023-02-01T22:16:54;6.50;71.30
17827;DHT22;9038;48.208;16.308;2023-02-01T22:18:57;6.40;70.90
17827;DHT22;9038;48.208;16.308;2023-02-01T22:20:59;6.50;71.10
17827;DHT22;9038;48.208;16.308;2023-02-01T22:23:02;6.50;71.20
17827;DHT22;9038;48.208;16.308;2023-02-01T22:25:05;6.50;71.30
17827;DHT22;9038;48.208;16.308;2023-02-01T22:27:09;6.50;71.30
17827;DHT22;9038;48.208;16.308;2023-02-01T22:29:11;6.50;71.10
17827;DHT22;9038;48.208;16.308;2023-02-01T22:31:14;6.50;71.20
17827;DHT22;9038;48.208;16.308;2023-02-01T22:33:16;6.60;71.30
17827;DHT22;9038;48.208;16.308;2023-02-01T22:35:19;6.50;71.40
17827;DHT22;9038;48.208;16.308;2023-02-01T22:37:21;6.60;71.60
17827;DHT22;9038;48.208;16.308;2023-02-01T22:39:23;6.50;71.90
17827;DHT22;9038;48.208;16.308;2023-02-01T22:41:25;6.50;71.80
17827;DHT22;9038;48.208;16.308;2023-02-01T22:43:27;6.50;72.00
17827;DHT22;9038;48.208;16.308;2023-02-01T22:45:30;6.50;71.90
17827;DHT22;9038;48.208;16.308;2023-02-01T22:47:32;6.50;72.10
17827;DHT22;9038;48.208;16.308;2023-02-01T22:49:33;6.50;72.00
17827;DHT22;9038;48.208;16.308;2023-02-01T22:51:37;6.50;72.10
17827;DHT22;9038;48.208;16.308;2023-02-01T22:53:39;6.50;71.80
17827;DHT22;9038;48.208;16.308;2023-02-01T22:55:41;6.50;71.70
17827;DHT22;9038;48.208;16.308;2023-02-01T22:57:45;6.60;71.70
17827;DHT22;9038;48.208;16.308;2023-02-01T22:59:47;6.70;71.70
17827;DHT22;9038;48.208;16.308;2023-02-01T23:01:49;6.60;71.40
17827;DHT22;9038;48.208;16.308;2023-02-01T23:03:55;6.60;71.50
17827;DHT22;9038;48.208;16.308;2023-02-01T23:06:01;6.60;71.60
17827;DHT22;9038;48.208;16.308;2023-02-01T23:08:06;6.60;71.70
17827;DHT22;9038;48.208;16.308;2023-02-01T23:10:11;6.60;71.90
17827;DHT22;9038;48.208;16.308;2023-02-01T23:12:13;6.70;72.80
17827;DHT22;9038;48.208;16.308;2023-02-01T23:14:16;6.70;74.60
17827;DHT22;9038;48.208;16.308;2023-02-01T23:16:21;6.50;78.50
17827;DHT22;9038;48.208;16.308;2023-02-01T23:18:23;6.30;82.00
17827;DHT22;9038;48.208;16.308;2023-02-01T23:20:28;6.10;84.70
17827;DHT22;9038;48.208;16.308;2023-02-01T23:22:31;6.00;85.00
17827;DHT22;9038;48.208;16.308;2023-02-01T23:24:35;5.90;84.30
17827;DHT22;9038;48.208;16.308;2023-02-01T23:26:38;5.90;84.90
17827;DHT22;9038;48.208;16.308;2023-02-01T23:28:40;5.90;88.10
17827;DHT22;9038;48.208;16.308;2023-02-01T23:30:42;5.80;87.60
17827;DHT22;9038;48.208;16.308;2023-02-01T23:32:44;5.70;88.20
17827;DHT22;9038;48.208;16.308;2023-02-01T23:34:46;5.60;88.10
17827;DHT22;9038;48.208;16.308;2023-02-01T23:36:48;5.50;89.50
17827;DHT22;9038;48.208;16.308;2023-02-01T23:38:50;5.30;89.60
17827;DHT22;9038;48.208;16.308;2023-02-01T23:40:56;5.10;90.70
17827;DHT22;9038;48.208;16.308;2023-02-01T23:42:58;4.90;90.90
17827;DHT22;9038;48.208;16.308;2023-02-01T23:45:17;4.70;91.10
17827;DHT22;9038;48.208;16.308;2023-02-01T23:47:19;4.50;91.30
17827;DHT22;9038;48.208;16.308;2023-02-01T23:49:21;4.30;91.20
17827;DHT22;9038;48.208;16.308;2023-02-01T23:51:23;4.30;91.90
17827;DHT22;9038;48.208;16.308;2023-02-01T23:53:26;4.20;90.90
17827;DHT22;9038;48.208;16.308;2023-02-01T23:55:27;4.10;90.80
17827;DHT22;9038;48.208;16.308;2023-02-01T23:57:31;4.10;90.70
17827;DHT22;9038;48.208;16.308;2023-02-01T23:59:33;4.00;90.90
